sensor_id;sensor_type;location;lat;lon;timestamp;P1;durP1;ratioP1;P2;durP2;ratioP2
4182;SDS011;2105;52.300;9.182;2022-11-18T00:01:44;20.03;;;15.87;;
4182;SDS011;2105;52.300;9.182;2022-11-18T00:04:11;17.83;;;15.93;;
4182;SDS011;2105;52.300;9.182;2022-11-18T00:06:38;17.30;;;15.53;;
4182;SDS011;2105;52.300;9.182;2022-11-18T00:09:05;29.77;;;15.97;;
4182;SDS011;2105;52.300;9.182;2022-11-18T00:11:33;17.87;;;15.03;;
4182;SDS011;2105;52.300;9.182;2022-11-18T00:14:18;16.87;;;15.07;;
4182;SDS011;2105;52.300;9.182;2022-11-18T00:16:48;16.63;;;14.90;;
4182;SDS011;2105;52.300;9.182;2022-11-18T00:19:16;16.53;;;14.73;;
4182;SDS011;2105;52.300;9.182;2022-11-18T00:21:44;18.07;;;16.17;;
4182;SDS011;2105;52.300;9.182;2022-11-18T00:24:10;22.17;;;15.77;;
4182;SDS011;2105;52.300;9.182;2022-11-18T00:26:39;17.60;;;15.80;;
4182;SDS011;2105;52.300;9.182;2022-11-18T00:29:07;17.03;;;15.30;;
4182;SDS011;2105;52.300;9.182;2022-11-18T00:31:34;16.67;;;13.93;;
4182;SDS011;2105;52.300;9.182;2022-11-18T00:34:01;16.80;;;14.83;;
4182;SDS011;2105;52.300;9.182;2022-11-18T00:36:28;17.30;;;15.50;;
4182;SDS011;2105;52.300;9.182;2022-11-18T00:38:54;17.90;;;15.50;;
4182;SDS011;2105;52.300;9.182;2022-11-18T00:41:21;16.33;;;14.63;;
4182;SDS011;2105;52.300;9.182;2022-11-18T00:43:50;16.23;;;14.13;;
4182;SDS011;2105;52.300;9.182;2022-11-18T00:46:15;16.73;;;14.23;;
4182;SDS011;2105;52.300;9.182;2022-11-18T00:48:42;16.87;;;15.07;;
4182;SDS011;2105;52.300;9.182;2022-11-18T00:51:10;16.63;;;14.67;;
4182;SDS011;2105;52.300;9.182;2022-11-18T00:53:39;19.67;;;14.47;;
4182;SDS011;2105;52.300;9.182;2022-11-18T00:56:06;16.53;;;14.80;;
4182;SDS011;2105;52.300;9.182;2022-11-18T00:58:34;18.57;;;15.60;;
4182;SDS011;2105;52.300;9.182;2022-11-18T01:01:02;18.07;;;16.17;;
4182;SDS011;2105;52.300;9.182;2022-11-18T01:03:29;17.53;;;15.73;;
4182;SDS011;2105;52.300;9.182;2022-11-18T01:05:56;18.07;;;15.43;;
4182;SDS011;2105;52.300;9.182;2022-11-18T01:08:22;19.97;;;17.20;;
4182;SDS011;2105;52.300;9.182;2022-11-18T01:10:49;24.10;;;16.07;;
4182;SDS011;2105;52.300;9.182;2022-11-18T01:13:18;22.90;;;16.90;;
4182;SDS011;2105;52.300;9.182;2022-11-18T01:15:46;22.93;;;17.13;;
4182;SDS011;2105;52.300;9.182;2022-11-18T01:18:16;21.57;;;17.30;;
4182;SDS011;2105;52.300;9.182;2022-11-18T01:20:44;29.20;;;19.10;;
4182;SDS011;2105;52.300;9.182;2022-11-18T01:23:12;23.93;;;17.97;;
4182;SDS011;2105;52.300;9.182;2022-11-18T01:25:39;27.97;;;18.50;;
4182;SDS011;2105;52.300;9.182;2022-11-18T01:28:07;24.97;;;17.20;;
4182;SDS011;2105;52.300;9.182;2022-11-18T01:30:35;25.23;;;18.70;;
4182;SDS011;2105;52.300;9.182;2022-11-18T01:33:03;21.57;;;17.07;;
4182;SDS011;2105;52.300;9.182;2022-11-18T01:35:34;26.10;;;18.80;;
4182;SDS011;2105;52.300;9.182;2022-11-18T01:38:01;26.97;;;18.73;;
4182;SDS011;2105;52.300;9.182;2022-11-18T01:40:28;28.23;;;18.73;;
4182;SDS011;2105;52.300;9.182;2022-11-18T01:42:55;25.10;;;18.10;;
4182;SDS011;2105;52.300;9.182;2022-11-18T01:45:29;24.80;;;18.17;;
4182;SDS011;2105;52.300;9.182;2022-11-18T01:48:01;26.53;;;18.80;;
4182;SDS011;2105;52.300;9.182;2022-11-18T01:50:31;23.57;;;17.27;;
4182;SDS011;2105;52.300;9.182;2022-11-18T01:53:01;31.90;;;18.20;;
4182;SDS011;2105;52.300;9.182;2022-11-18T01:55:31;27.03;;;18.63;;
4182;SDS011;2105;52.300;9.182;2022-11-18T01:58:02;28.23;;;17.73;;
4182;SDS011;2105;52.300;9.182;2022-11-18T02:00:31;25.03;;;18.53;;
4182;SDS011;2105;52.300;9.182;2022-11-18T02:02:58;27.57;;;18.60;;
4182;SDS011;2105;52.300;9.182;2022-11-18T02:05:26;26.90;;;18.43;;
4182;SDS011;2105;52.300;9.182;2022-11-18T02:07:54;32.47;;;18.00;;
4182;SDS011;2105;52.300;9.182;2022-11-18T02:10:24;24.53;;;17.90;;
4182;SDS011;2105;52.300;9.182;2022-11-18T02:12:51;25.47;;;17.33;;
4182;SDS011;2105;52.300;9.182;2022-11-18T02:15:20;29.20;;;17.47;;
4182;SDS011;2105;52.300;9.182;2022-11-18T02:17:55;23.40;;;17.83;;
4182;SDS011;2105;52.300;9.182;2022-11-18T02:20:30;28.40;;;18.30;;
4182;SDS011;2105;52.300;9.182;2022-11-18T02:23:09;27.57;;;19.93;;
4182;SDS011;2105;52.300;9.182;2022-11-18T02:26:09;34.60;;;20.17;;
4182;SDS011;2105;52.300;9.182;2022-11-18T02:29:07;28.30;;;18.77;;
4182;SDS011;2105;52.300;9.182;2022-11-18T02:31:38;28.53;;;18.83;;
4182;SDS011;2105;52.300;9.182;2022-11-18T02:34:15;27.53;;;18.47;;
4182;SDS011;2105;52.300;9.182;2022-11-18T02:36:49;27.87;;;18.67;;
4182;SDS011;2105;52.300;9.182;2022-11-18T02:39:21;25.80;;;17.77;;
4182;SDS011;2105;52.300;9.182;2022-11-18T02:41:53;29.67;;;17.77;;
4182;SDS011;2105;52.300;9.182;2022-11-18T02:44:26;27.47;;;18.80;;
4182;SDS011;2105;52.300;9.182;2022-11-18T02:46:55;25.50;;;18.63;;
4182;SDS011;2105;52.300;9.182;2022-11-18T02:49:28;28.33;;;18.40;;
4182;SDS011;2105;52.300;9.182;2022-11-18T02:51:59;31.63;;;17.80;;
4182;SDS011;2105;52.300;9.182;2022-11-18T02:54:27;26.93;;;18.40;;
4182;SDS011;2105;52.300;9.182;2022-11-18T02:56:54;30.13;;;18.83;;
4182;SDS011;2105;52.300;9.182;2022-11-18T02:59:22;30.80;;;18.70;;
4182;SDS011;2105;52.300;9.182;2022-11-18T03:01:50;29.37;;;18.80;;
4182;SDS011;2105;52.300;9.182;2022-11-18T03:04:17;33.30;;;20.10;;
4182;SDS011;2105;52.300;9.182;2022-11-18T03:06:47;25.10;;;18.50;;
4182;SDS011;2105;52.300;9.182;2022-11-18T03:09:19;30.60;;;19.73;;
4182;SDS011;2105;52.300;9.182;2022-11-18T03:11:55;24.97;;;18.17;;
4182;SDS011;2105;52.300;9.182;2022-11-18T03:14:27;29.07;;;18.87;;
4182;SDS011;2105;52.300;9.182;2022-11-18T03:17:05;26.40;;;18.40;;
4182;SDS011;2105;52.300;9.182;2022-11-18T03:19:44;25.43;;;18.10;;
4182;SDS011;2105;52.300;9.182;2022-11-18T03:22:20;27.70;;;17.43;;
4182;SDS011;2105;52.300;9.182;2022-11-18T03:24:52;22.30;;;16.37;;
4182;SDS011;2105;52.300;9.182;2022-11-18T03:27:25;24.77;;;16.97;;
4182;SDS011;2105;52.300;9.182;2022-11-18T03:29:56;25.87;;;17.57;;
4182;SDS011;2105;52.300;9.182;2022-11-18T03:32:29;26.83;;;17.47;;
4182;SDS011;2105;52.300;9.182;2022-11-18T03:34:58;23.60;;;17.57;;
4182;SDS011;2105;52.300;9.182;2022-11-18T03:37:29;22.10;;;16.87;;
4182;SDS011;2105;52.300;9.182;2022-11-18T03:40:01;22.80;;;16.80;;
4182;SDS011;2105;52.300;9.182;2022-11-18T03:42:33;22.50;;;16.67;;
4182;SDS011;2105;52.300;9.182;2022-11-18T03:45:05;24.93;;;16.80;;
4182;SDS011;2105;52.300;9.182;2022-11-18T03:47:38;24.53;;;16.87;;
4182;SDS011;2105;52.300;9.182;2022-11-18T03:50:08;25.47;;;18.03;;
4182;SDS011;2105;52.300;9.182;2022-11-18T03:52:39;21.17;;;16.43;;
4182;SDS011;2105;52.300;9.182;2022-11-18T03:55:09;20.27;;;16.00;;
4182;SDS011;2105;52.300;9.182;2022-11-18T03:57:41;17.50;;;14.33;;
4182;SDS011;2105;52.300;9.182;2022-11-18T04:00:12;22.03;;;16.23;;
4182;SDS011;2105;52.300;9.182;2022-11-18T04:02:42;19.67;;;16.27;;
4182;SDS011;2105;52.300;9.182;2022-11-18T04:05:10;21.40;;;16.47;;
4182;SDS011;2105;52.300;9.182;2022-11-18T04:07:39;19.30;;;15.23;;
4182;SDS011;2105;52.300;9.182;2022-11-18T04:10:12;18.03;;;15.00;;
4182;SDS011;2105;52.300;9.182;2022-11-18T04:12:42;20.70;;;16.27;;
4182;SDS011;2105;52.300;9.182;2022-11-18T04:15:11;19.50;;;17.30;;
4182;SDS011;2105;52.300;9.182;2022-11-18T04:17:39;21.07;;;16.47;;
4182;SDS011;2105;52.300;9.182;2022-11-18T04:20:10;22.43;;;18.20;;
4182;SDS011;2105;52.300;9.182;2022-11-18T04:22:41;21.27;;;16.90;;
4182;SDS011;2105;52.300;9.182;2022-11-18T04:25:08;19.40;;;16.20;;
4182;SDS011;2105;52.300;9.182;2022-11-18T04:27:35;19.50;;;16.50;;
4182;SDS011;2105;52.300;9.182;2022-11-18T04:30:02;21.77;;;16.57;;
4182;SDS011;2105;52.300;9.182;2022-11-18T04:32:29;23.80;;;16.30;;
4182;SDS011;2105;52.300;9.182;2022-11-18T04:34:58;23.57;;;16.20;;
4182;SDS011;2105;52.300;9.182;2022-11-18T04:37:24;18.53;;;15.73;;
4182;SDS011;2105;52.300;9.182;2022-11-18T04:39:51;15.93;;;14.00;;
4182;SDS011;2105;52.300;9.182;2022-11-18T04:42:18;18.37;;;15.20;;
4182;SDS011;2105;52.300;9.182;2022-11-18T04:44:45;18.77;;;15.17;;
4182;SDS011;2105;52.300;9.182;2022-11-18T04:47:11;18.20;;;15.33;;
4182;SDS011;2105;52.300;9.182;2022-11-18T04:49:38;17.30;;;14.33;;
4182;SDS011;2105;52.300;9.182;2022-11-18T04:52:06;18.13;;;14.73;;
4182;SDS011;2105;52.300;9.182;2022-11-18T04:54:33;15.83;;;13.70;;
4182;SDS011;2105;52.300;9.182;2022-11-18T04:57:00;14.63;;;13.13;;
4182;SDS011;2105;52.300;9.182;2022-11-18T04:59:27;16.17;;;13.30;;
4182;SDS011;2105;52.300;9.182;2022-11-18T05:01:54;15.03;;;12.67;;
4182;SDS011;2105;52.300;9.182;2022-11-18T05:04:23;15.27;;;12.80;;
4182;SDS011;2105;52.300;9.182;2022-11-18T05:06:51;14.57;;;12.10;;
4182;SDS011;2105;52.300;9.182;2022-11-18T05:09:19;12.07;;;10.87;;
4182;SDS011;2105;52.300;9.182;2022-11-18T05:11:46;13.30;;;12.00;;
4182;SDS011;2105;52.300;9.182;2022-11-18T05:14:30;13.50;;;12.10;;
4182;SDS011;2105;52.300;9.182;2022-11-18T05:16:58;12.57;;;11.47;;
4182;SDS011;2105;52.300;9.182;2022-11-18T05:19:26;12.70;;;11.40;;
4182;SDS011;2105;52.300;9.182;2022-11-18T05:21:53;12.13;;;10.83;;
4182;SDS011;2105;52.300;9.182;2022-11-18T05:24:21;13.63;;;12.23;;
4182;SDS011;2105;52.300;9.182;2022-11-18T05:26:49;16.17;;;13.27;;
4182;SDS011;2105;52.300;9.182;2022-11-18T05:29:16;12.83;;;11.40;;
4182;SDS011;2105;52.300;9.182;2022-11-18T05:31:43;12.40;;;11.20;;
4182;SDS011;2105;52.300;9.182;2022-11-18T05:34:10;14.47;;;12.97;;
4182;SDS011;2105;52.300;9.182;2022-11-18T05:36:37;13.13;;;11.83;;
4182;SDS011;2105;52.300;9.182;2022-11-18T05:39:03;13.30;;;11.90;;
4182;SDS011;2105;52.300;9.182;2022-11-18T05:41:32;14.73;;;12.20;;
4182;SDS011;2105;52.300;9.182;2022-11-18T05:44:16;14.23;;;12.83;;
4182;SDS011;2105;52.300;9.182;2022-11-18T05:46:43;13.87;;;12.47;;
4182;SDS011;2105;52.300;9.182;2022-11-18T05:49:10;13.60;;;12.30;;
4182;SDS011;2105;52.300;9.182;2022-11-18T05:51:36;14.00;;;12.60;;
4182;SDS011;2105;52.300;9.182;2022-11-18T05:54:03;13.53;;;12.23;;
4182;SDS011;2105;52.300;9.182;2022-11-18T05:56:34;14.30;;;12.80;;
4182;SDS011;2105;52.300;9.182;2022-11-18T05:59:02;12.70;;;11.50;;
4182;SDS011;2105;52.300;9.182;2022-11-18T06:01:30;13.10;;;11.80;;
4182;SDS011;2105;52.300;9.182;2022-11-18T06:03:59;14.33;;;11.83;;
4182;SDS011;2105;52.300;9.182;2022-11-18T06:06:28;12.90;;;11.70;;
4182;SDS011;2105;52.300;9.182;2022-11-18T06:08:55;13.60;;;12.30;;
4182;SDS011;2105;52.300;9.182;2022-11-18T06:11:26;13.90;;;12.60;;
4182;SDS011;2105;52.300;9.182;2022-11-18T06:13:58;14.20;;;12.77;;
4182;SDS011;2105;52.300;9.182;2022-11-18T06:16:28;13.97;;;12.53;;
4182;SDS011;2105;52.300;9.182;2022-11-18T06:18:57;15.10;;;13.00;;
4182;SDS011;2105;52.300;9.182;2022-11-18T06:21:26;14.97;;;13.43;;
4182;SDS011;2105;52.300;9.182;2022-11-18T06:23:53;14.50;;;13.00;;
4182;SDS011;2105;52.300;9.182;2022-11-18T06:26:20;14.33;;;12.83;;
4182;SDS011;2105;52.300;9.182;2022-11-18T06:28:47;14.03;;;12.53;;
4182;SDS011;2105;52.300;9.182;2022-11-18T06:31:15;13.60;;;12.30;;
4182;SDS011;2105;52.300;9.182;2022-11-18T06:33:42;14.33;;;12.90;;
4182;SDS011;2105;52.300;9.182;2022-11-18T06:36:09;15.43;;;13.80;;
4182;SDS011;2105;52.300;9.182;2022-11-18T06:38:36;14.80;;;13.30;;
4182;SDS011;2105;52.300;9.182;2022-11-18T06:41:02;16.33;;;13.57;;
4182;SDS011;2105;52.300;9.182;2022-11-18T06:43:29;17.13;;;13.87;;
4182;SDS011;2105;52.300;9.182;2022-11-18T06:46:06;15.80;;;12.80;;
4182;SDS011;2105;52.300;9.182;2022-11-18T06:48:54;14.80;;;13.20;;
4182;SDS011;2105;52.300;9.182;2022-11-18T06:51:21;15.27;;;13.67;;
4182;SDS011;2105;52.300;9.182;2022-11-18T06:53:48;16.27;;;14.50;;
4182;SDS011;2105;52.300;9.182;2022-11-18T06:56:15;17.27;;;14.60;;
4182;SDS011;2105;52.300;9.182;2022-11-18T06:58:43;16.87;;;14.70;;
4182;SDS011;2105;52.300;9.182;2022-11-18T07:01:11;15.97;;;14.23;;
4182;SDS011;2105;52.300;9.182;2022-11-18T07:03:39;18.23;;;14.07;;
4182;SDS011;2105;52.300;9.182;2022-11-18T07:06:10;21.67;;;15.73;;
4182;SDS011;2105;52.300;9.182;2022-11-18T07:08:38;20.13;;;16.23;;
4182;SDS011;2105;52.300;9.182;2022-11-18T07:11:06;23.90;;;16.40;;
4182;SDS011;2105;52.300;9.182;2022-11-18T07:13:35;20.80;;;15.47;;
4182;SDS011;2105;52.300;9.182;2022-11-18T07:16:03;21.43;;;15.20;;
4182;SDS011;2105;52.300;9.182;2022-11-18T07:18:31;20.60;;;15.30;;
4182;SDS011;2105;52.300;9.182;2022-11-18T07:21:00;18.00;;;15.03;;
4182;SDS011;2105;52.300;9.182;2022-11-18T07:23:29;23.40;;;16.33;;
4182;SDS011;2105;52.300;9.182;2022-11-18T07:25:56;21.40;;;15.83;;
4182;SDS011;2105;52.300;9.182;2022-11-18T07:28:22;19.40;;;14.97;;
4182;SDS011;2105;52.300;9.182;2022-11-18T07:30:49;19.80;;;15.00;;
4182;SDS011;2105;52.300;9.182;2022-11-18T07:33:16;23.33;;;16.10;;
4182;SDS011;2105;52.300;9.182;2022-11-18T07:35:43;24.03;;;16.03;;
4182;SDS011;2105;52.300;9.182;2022-11-18T07:38:10;22.27;;;16.00;;
4182;SDS011;2105;52.300;9.182;2022-11-18T07:40:38;22.17;;;16.40;;
4182;SDS011;2105;52.300;9.182;2022-11-18T07:43:04;22.63;;;16.17;;
4182;SDS011;2105;52.300;9.182;2022-11-18T07:45:31;21.50;;;15.70;;
4182;SDS011;2105;52.300;9.182;2022-11-18T07:47:58;25.10;;;17.70;;
4182;SDS011;2105;52.300;9.182;2022-11-18T07:50:25;24.07;;;16.30;;
4182;SDS011;2105;52.300;9.182;2022-11-18T07:52:53;20.70;;;15.93;;
4182;SDS011;2105;52.300;9.182;2022-11-18T07:55:20;20.53;;;16.00;;
4182;SDS011;2105;52.300;9.182;2022-11-18T07:57:48;21.03;;;15.80;;
4182;SDS011;2105;52.300;9.182;2022-11-18T08:00:16;23.80;;;16.07;;
4182;SDS011;2105;52.300;9.182;2022-11-18T08:02:43;20.37;;;16.00;;
4182;SDS011;2105;52.300;9.182;2022-11-18T08:05:10;25.70;;;16.60;;
4182;SDS011;2105;52.300;9.182;2022-11-18T08:07:36;23.13;;;15.60;;
4182;SDS011;2105;52.300;9.182;2022-11-18T08:10:04;17.93;;;15.30;;
4182;SDS011;2105;52.300;9.182;2022-11-18T08:12:31;22.00;;;15.33;;
4182;SDS011;2105;52.300;9.182;2022-11-18T08:14:59;19.90;;;15.90;;
4182;SDS011;2105;52.300;9.182;2022-11-18T08:17:25;21.40;;;15.67;;
4182;SDS011;2105;52.300;9.182;2022-11-18T08:19:52;19.83;;;15.87;;
4182;SDS011;2105;52.300;9.182;2022-11-18T08:22:19;20.37;;;15.90;;
4182;SDS011;2105;52.300;9.182;2022-11-18T08:24:46;23.90;;;17.57;;
4182;SDS011;2105;52.300;9.182;2022-11-18T08:27:12;21.10;;;16.30;;
4182;SDS011;2105;52.300;9.182;2022-11-18T08:29:39;23.83;;;17.47;;
4182;SDS011;2105;52.300;9.182;2022-11-18T08:32:07;18.73;;;16.00;;
4182;SDS011;2105;52.300;9.182;2022-11-18T08:34:34;20.30;;;16.43;;
4182;SDS011;2105;52.300;9.182;2022-11-18T08:37:00;23.97;;;17.77;;
4182;SDS011;2105;52.300;9.182;2022-11-18T08:39:27;24.67;;;18.50;;
4182;SDS011;2105;52.300;9.182;2022-11-18T08:41:56;22.80;;;17.27;;
4182;SDS011;2105;52.300;9.182;2022-11-18T08:44:23;21.07;;;16.80;;
4182;SDS011;2105;52.300;9.182;2022-11-18T08:46:50;21.70;;;16.67;;
4182;SDS011;2105;52.300;9.182;2022-11-18T08:49:18;25.43;;;17.23;;
4182;SDS011;2105;52.300;9.182;2022-11-18T08:51:44;20.90;;;16.80;;
4182;SDS011;2105;52.300;9.182;2022-11-18T08:54:11;28.50;;;18.47;;
4182;SDS011;2105;52.300;9.182;2022-11-18T08:56:38;26.23;;;17.57;;
4182;SDS011;2105;52.300;9.182;2022-11-18T08:59:05;26.93;;;18.87;;
4182;SDS011;2105;52.300;9.182;2022-11-18T09:01:32;26.00;;;17.80;;
4182;SDS011;2105;52.300;9.182;2022-11-18T09:04:00;31.33;;;19.87;;
4182;SDS011;2105;52.300;9.182;2022-11-18T09:06:28;27.27;;;18.73;;
4182;SDS011;2105;52.300;9.182;2022-11-18T09:08:55;29.13;;;19.00;;
4182;SDS011;2105;52.300;9.182;2022-11-18T09:11:22;30.37;;;19.03;;
4182;SDS011;2105;52.300;9.182;2022-11-18T09:13:51;28.43;;;17.90;;
4182;SDS011;2105;52.300;9.182;2022-11-18T09:16:18;29.37;;;19.47;;
4182;SDS011;2105;52.300;9.182;2022-11-18T09:18:47;31.60;;;18.53;;
4182;SDS011;2105;52.300;9.182;2022-11-18T09:21:14;26.73;;;18.63;;
4182;SDS011;2105;52.300;9.182;2022-11-18T09:23:42;26.07;;;18.00;;
4182;SDS011;2105;52.300;9.182;2022-11-18T09:26:09;26.97;;;18.83;;
4182;SDS011;2105;52.300;9.182;2022-11-18T09:28:37;28.30;;;19.30;;
4182;SDS011;2105;52.300;9.182;2022-11-18T09:31:04;28.37;;;18.97;;
4182;SDS011;2105;52.300;9.182;2022-11-18T09:33:33;32.53;;;18.97;;
4182;SDS011;2105;52.300;9.182;2022-11-18T09:36:00;32.63;;;20.47;;
4182;SDS011;2105;52.300;9.182;2022-11-18T09:38:27;32.13;;;19.33;;
4182;SDS011;2105;52.300;9.182;2022-11-18T09:40:58;35.20;;;20.77;;
4182;SDS011;2105;52.300;9.182;2022-11-18T09:43:35;31.77;;;20.43;;
4182;SDS011;2105;52.300;9.182;2022-11-18T09:46:17;34.37;;;20.83;;
4182;SDS011;2105;52.300;9.182;2022-11-18T09:48:49;35.70;;;22.10;;
4182;SDS011;2105;52.300;9.182;2022-11-18T09:51:38;36.10;;;21.13;;
4182;SDS011;2105;52.300;9.182;2022-11-18T09:54:07;35.77;;;20.87;;
4182;SDS011;2105;52.300;9.182;2022-11-18T09:56:39;35.33;;;21.97;;
4182;SDS011;2105;52.300;9.182;2022-11-18T09:59:06;36.93;;;20.40;;
4182;SDS011;2105;52.300;9.182;2022-11-18T10:01:36;35.43;;;21.90;;
4182;SDS011;2105;52.300;9.182;2022-11-18T10:04:03;34.20;;;18.83;;
4182;SDS011;2105;52.300;9.182;2022-11-18T10:06:30;33.80;;;20.17;;
4182;SDS011;2105;52.300;9.182;2022-11-18T10:09:03;37.00;;;19.67;;
4182;SDS011;2105;52.300;9.182;2022-11-18T10:11:40;34.27;;;21.37;;
4182;SDS011;2105;52.300;9.182;2022-11-18T10:14:15;35.40;;;19.90;;
4182;SDS011;2105;52.300;9.182;2022-11-18T10:16:52;38.57;;;20.83;;
4182;SDS011;2105;52.300;9.182;2022-11-18T10:19:41;34.73;;;19.50;;
4182;SDS011;2105;52.300;9.182;2022-11-18T10:22:17;37.80;;;21.87;;
4182;SDS011;2105;52.300;9.182;2022-11-18T10:24:48;38.03;;;19.93;;
4182;SDS011;2105;52.300;9.182;2022-11-18T10:27:17;39.60;;;21.50;;
4182;SDS011;2105;52.300;9.182;2022-11-18T10:29:45;39.10;;;22.20;;
4182;SDS011;2105;52.300;9.182;2022-11-18T10:32:18;36.93;;;20.73;;
4182;SDS011;2105;52.300;9.182;2022-11-18T10:34:46;33.90;;;20.73;;
4182;SDS011;2105;52.300;9.182;2022-11-18T10:37:21;35.23;;;20.80;;
4182;SDS011;2105;52.300;9.182;2022-11-18T10:39:50;36.20;;;19.40;;
4182;SDS011;2105;52.300;9.182;2022-11-18T10:42:21;35.50;;;19.37;;
4182;SDS011;2105;52.300;9.182;2022-11-18T10:44:53;29.10;;;18.63;;
4182;SDS011;2105;52.300;9.182;2022-11-18T10:47:21;29.17;;;18.23;;
4182;SDS011;2105;52.300;9.182;2022-11-18T10:49:50;36.00;;;19.43;;
4182;SDS011;2105;52.300;9.182;2022-11-18T10:52:17;30.33;;;20.27;;
4182;SDS011;2105;52.300;9.182;2022-11-18T10:54:44;34.93;;;21.40;;
4182;SDS011;2105;52.300;9.182;2022-11-18T10:57:31;34.37;;;20.50;;
4182;SDS011;2105;52.300;9.182;2022-11-18T11:00:03;33.83;;;20.30;;
4182;SDS011;2105;52.300;9.182;2022-11-18T11:02:33;37.97;;;22.30;;
4182;SDS011;2105;52.300;9.182;2022-11-18T11:05:14;35.30;;;21.20;;
4182;SDS011;2105;52.300;9.182;2022-11-18T11:07:44;31.53;;;20.67;;
4182;SDS011;2105;52.300;9.182;2022-11-18T11:10:17;33.30;;;21.00;;
4182;SDS011;2105;52.300;9.182;2022-11-18T11:12:50;42.93;;;20.93;;
4182;SDS011;2105;52.300;9.182;2022-11-18T11:15:23;30.60;;;19.60;;
4182;SDS011;2105;52.300;9.182;2022-11-18T11:17:58;32.30;;;19.80;;
4182;SDS011;2105;52.300;9.182;2022-11-18T11:20:44;33.10;;;19.80;;
4182;SDS011;2105;52.300;9.182;2022-11-18T11:23:12;34.10;;;19.50;;
4182;SDS011;2105;52.300;9.182;2022-11-18T11:25:41;32.57;;;20.40;;
4182;SDS011;2105;52.300;9.182;2022-11-18T11:28:13;36.43;;;21.47;;
4182;SDS011;2105;52.300;9.182;2022-11-18T11:30:49;40.00;;;22.43;;
4182;SDS011;2105;52.300;9.182;2022-11-18T11:33:28;37.17;;;22.37;;
4182;SDS011;2105;52.300;9.182;2022-11-18T11:36:00;37.47;;;22.80;;
4182;SDS011;2105;52.300;9.182;2022-11-18T11:38:37;33.67;;;20.77;;
4182;SDS011;2105;52.300;9.182;2022-11-18T11:41:19;30.63;;;20.23;;
4182;SDS011;2105;52.300;9.182;2022-11-18T11:43:53;31.77;;;19.80;;
4182;SDS011;2105;52.300;9.182;2022-11-18T11:46:40;31.97;;;21.17;;
4182;SDS011;2105;52.300;9.182;2022-11-18T11:49:38;30.00;;;20.43;;
4182;SDS011;2105;52.300;9.182;2022-11-18T11:52:18;28.90;;;19.20;;
4182;SDS011;2105;52.300;9.182;2022-11-18T11:54:57;28.23;;;19.30;;
4182;SDS011;2105;52.300;9.182;2022-11-18T11:57:35;23.73;;;17.07;;
4182;SDS011;2105;52.300;9.182;2022-11-18T12:00:14;25.50;;;18.37;;
4182;SDS011;2105;52.300;9.182;2022-11-18T12:02:59;28.47;;;18.13;;
4182;SDS011;2105;52.300;9.182;2022-11-18T12:05:36;28.57;;;18.33;;
4182;SDS011;2105;52.300;9.182;2022-11-18T12:08:08;25.93;;;18.80;;
4182;SDS011;2105;52.300;9.182;2022-11-18T12:10:41;28.83;;;18.57;;
4182;SDS011;2105;52.300;9.182;2022-11-18T12:13:14;29.27;;;18.67;;
4182;SDS011;2105;52.300;9.182;2022-11-18T12:16:02;31.70;;;20.40;;
4182;SDS011;2105;52.300;9.182;2022-11-18T12:18:40;31.53;;;20.97;;
4182;SDS011;2105;52.300;9.182;2022-11-18T12:24:23;30.17;;;20.10;;
4182;SDS011;2105;52.300;9.182;2022-11-18T12:26:56;28.60;;;19.33;;
4182;SDS011;2105;52.300;9.182;2022-11-18T12:29:24;25.10;;;18.33;;
4182;SDS011;2105;52.300;9.182;2022-11-18T12:31:55;30.83;;;18.80;;
4182;SDS011;2105;52.300;9.182;2022-11-18T12:34:30;28.97;;;19.50;;
4182;SDS011;2105;52.300;9.182;2022-11-18T12:40:04;25.10;;;18.60;;
4182;SDS011;2105;52.300;9.182;2022-11-18T12:42:40;28.07;;;19.23;;
4182;SDS011;2105;52.300;9.182;2022-11-18T12:45:46;27.30;;;19.17;;
4182;SDS011;2105;52.300;9.182;2022-11-18T12:48:30;26.70;;;19.67;;
4182;SDS011;2105;52.300;9.182;2022-11-18T12:51:06;26.17;;;19.20;;
4182;SDS011;2105;52.300;9.182;2022-11-18T12:53:51;27.53;;;20.07;;
4182;SDS011;2105;52.300;9.182;2022-11-18T12:56:19;29.40;;;20.97;;
4182;SDS011;2105;52.300;9.182;2022-11-18T12:58:49;27.40;;;19.93;;
4182;SDS011;2105;52.300;9.182;2022-11-18T13:01:17;30.50;;;21.27;;
4182;SDS011;2105;52.300;9.182;2022-11-18T13:03:47;34.47;;;22.00;;
4182;SDS011;2105;52.300;9.182;2022-11-18T13:06:19;35.80;;;21.53;;
4182;SDS011;2105;52.300;9.182;2022-11-18T13:08:52;31.77;;;21.20;;
4182;SDS011;2105;52.300;9.182;2022-11-18T13:11:21;31.30;;;20.67;;
4182;SDS011;2105;52.300;9.182;2022-11-18T13:14:12;34.40;;;22.33;;
4182;SDS011;2105;52.300;9.182;2022-11-18T13:16:58;29.77;;;20.07;;
4182;SDS011;2105;52.300;9.182;2022-11-18T13:19:54;29.77;;;20.40;;
4182;SDS011;2105;52.300;9.182;2022-11-18T13:22:22;29.20;;;19.20;;
4182;SDS011;2105;52.300;9.182;2022-11-18T13:25:19;28.63;;;18.57;;
4182;SDS011;2105;52.300;9.182;2022-11-18T13:27:48;25.90;;;18.20;;
4182;SDS011;2105;52.300;9.182;2022-11-18T13:30:18;25.17;;;17.67;;
4182;SDS011;2105;52.300;9.182;2022-11-18T13:32:45;23.93;;;17.57;;
4182;SDS011;2105;52.300;9.182;2022-11-18T13:35:14;24.13;;;16.53;;
4182;SDS011;2105;52.300;9.182;2022-11-18T13:37:47;24.43;;;16.83;;
4182;SDS011;2105;52.300;9.182;2022-11-18T13:40:20;25.70;;;17.90;;
4182;SDS011;2105;52.300;9.182;2022-11-18T13:42:48;23.63;;;16.80;;
4182;SDS011;2105;52.300;9.182;2022-11-18T13:45:15;24.03;;;17.27;;
4182;SDS011;2105;52.300;9.182;2022-11-18T13:47:42;22.90;;;17.40;;
4182;SDS011;2105;52.300;9.182;2022-11-18T13:50:16;24.60;;;18.17;;
4182;SDS011;2105;52.300;9.182;2022-11-18T13:52:47;22.47;;;18.10;;
4182;SDS011;2105;52.300;9.182;2022-11-18T13:55:20;27.40;;;18.67;;
4182;SDS011;2105;52.300;9.182;2022-11-18T13:57:49;25.30;;;19.47;;
4182;SDS011;2105;52.300;9.182;2022-11-18T14:00:21;35.20;;;18.73;;
4182;SDS011;2105;52.300;9.182;2022-11-18T14:02:52;26.70;;;18.50;;
4182;SDS011;2105;52.300;9.182;2022-11-18T14:05:24;25.70;;;19.30;;
4182;SDS011;2105;52.300;9.182;2022-11-18T14:07:54;28.53;;;20.50;;
4182;SDS011;2105;52.300;9.182;2022-11-18T14:10:28;27.20;;;18.80;;
4182;SDS011;2105;52.300;9.182;2022-11-18T14:12:56;30.40;;;19.50;;
4182;SDS011;2105;52.300;9.182;2022-11-18T14:15:32;26.20;;;18.80;;
4182;SDS011;2105;52.300;9.182;2022-11-18T14:18:00;31.10;;;20.80;;
4182;SDS011;2105;52.300;9.182;2022-11-18T14:20:29;29.27;;;20.63;;
4182;SDS011;2105;52.300;9.182;2022-11-18T14:22:57;31.50;;;20.67;;
4182;SDS011;2105;52.300;9.182;2022-11-18T14:25:26;31.00;;;20.67;;
4182;SDS011;2105;52.300;9.182;2022-11-18T14:27:55;31.40;;;21.73;;
4182;SDS011;2105;52.300;9.182;2022-11-18T14:30:30;28.23;;;20.80;;
4182;SDS011;2105;52.300;9.182;2022-11-18T14:33:02;32.37;;;22.00;;
4182;SDS011;2105;52.300;9.182;2022-11-18T14:35:52;32.50;;;21.43;;
4182;SDS011;2105;52.300;9.182;2022-11-18T14:38:24;35.90;;;22.30;;
4182;SDS011;2105;52.300;9.182;2022-11-18T14:41:03;30.40;;;21.43;;
4182;SDS011;2105;52.300;9.182;2022-11-18T14:43:32;33.37;;;20.47;;
4182;SDS011;2105;52.300;9.182;2022-11-18T14:46:00;35.40;;;21.80;;
4182;SDS011;2105;52.300;9.182;2022-11-18T14:48:29;35.13;;;22.50;;
4182;SDS011;2105;52.300;9.182;2022-11-18T14:50:58;37.90;;;21.10;;
4182;SDS011;2105;52.300;9.182;2022-11-18T14:53:25;33.20;;;20.60;;
4182;SDS011;2105;52.300;9.182;2022-11-18T14:55:53;33.57;;;21.07;;
4182;SDS011;2105;52.300;9.182;2022-11-18T14:58:22;35.67;;;22.10;;
4182;SDS011;2105;52.300;9.182;2022-11-18T15:00:49;34.30;;;22.50;;
4182;SDS011;2105;52.300;9.182;2022-11-18T15:03:16;32.43;;;21.30;;
4182;SDS011;2105;52.300;9.182;2022-11-18T15:05:43;28.70;;;20.63;;
4182;SDS011;2105;52.300;9.182;2022-11-18T15:08:11;33.60;;;22.30;;
4182;SDS011;2105;52.300;9.182;2022-11-18T15:10:38;29.37;;;20.60;;
4182;SDS011;2105;52.300;9.182;2022-11-18T15:13:05;31.70;;;21.10;;
4182;SDS011;2105;52.300;9.182;2022-11-18T15:15:32;32.17;;;22.60;;